sensor_id;sensor_type;location;lat;lon;timestamp;P1;durP1;ratioP1;P2;durP2;ratioP2
67514;SDS011;60646;55.802;37.032;2022-12-24T00:00:18;4.13;;;2.05;;
67514;SDS011;60646;55.802;37.032;2022-12-24T00:02:44;1.98;;;1.55;;
67514;SDS011;60646;55.802;37.032;2022-12-24T00:05:09;3.58;;;2.00;;
67514;SDS011;60646;55.802;37.032;2022-12-24T00:07:35;4.07;;;1.88;;
67514;SDS011;60646;55.802;37.032;2022-12-24T00:10:01;2.47;;;1.85;;
67514;SDS011;60646;55.802;37.032;2022-12-24T00:12:28;3.58;;;1.92;;
67514;SDS011;60646;55.802;37.032;2022-12-24T00:14:54;2.67;;;2.10;;
67514;SDS011;60646;55.802;37.032;2022-12-24T00:17:19;2.67;;;1.98;;
67514;SDS011;60646;55.802;37.032;2022-12-24T00:19:45;5.00;;;2.20;;
67514;SDS011;60646;55.802;37.032;2022-12-24T00:22:11;3.45;;;2.08;;
67514;SDS011;60646;55.802;37.032;2022-12-24T00:24:37;3.80;;;2.25;;
67514;SDS011;60646;55.802;37.032;2022-12-24T00:27:03;3.38;;;2.05;;
67514;SDS011;60646;55.802;37.032;2022-12-24T00:29:30;3.42;;;2.17;;
67514;SDS011;60646;55.802;37.032;2022-12-24T00:31:56;3.30;;;2.20;;
67514;SDS011;60646;55.802;37.032;2022-12-24T00:34:22;3.20;;;2.10;;
67514;SDS011;60646;55.802;37.032;2022-12-24T00:36:49;3.97;;;2.42;;
67514;SDS011;60646;55.802;37.032;2022-12-24T00:39:15;3.75;;;2.25;;
67514;SDS011;60646;55.802;37.032;2022-12-24T00:41:40;3.10;;;2.10;;
67514;SDS011;60646;55.802;37.032;2022-12-24T00:44:06;4.25;;;2.42;;
67514;SDS011;60646;55.802;37.032;2022-12-24T00:46:42;5.47;;;3.05;;
67514;SDS011;60646;55.802;37.032;2022-12-24T00:49:12;4.50;;;2.35;;
67514;SDS011;60646;55.802;37.032;2022-12-24T00:52:45;5.18;;;2.60;;
67514;SDS011;60646;55.802;37.032;2022-12-24T00:55:21;5.68;;;2.50;;
67514;SDS011;60646;55.802;37.032;2022-12-24T00:57:47;4.60;;;2.80;;
67514;SDS011;60646;55.802;37.032;2022-12-24T01:00:13;4.82;;;2.83;;
67514;SDS011;60646;55.802;37.032;2022-12-24T01:02:42;6.10;;;2.97;;
67514;SDS011;60646;55.802;37.032;2022-12-24T01:09:31;4.60;;;2.47;;
67514;SDS011;60646;55.802;37.032;2022-12-24T01:12:00;5.25;;;3.10;;
67514;SDS011;60646;55.802;37.032;2022-12-24T01:14:44;4.93;;;2.78;;
67514;SDS011;60646;55.802;37.032;2022-12-24T01:18:03;6.97;;;3.10;;
67514;SDS011;60646;55.802;37.032;2022-12-24T01:21:32;5.15;;;2.90;;
67514;SDS011;60646;55.802;37.032;2022-12-24T01:23:58;5.15;;;2.80;;
67514;SDS011;60646;55.802;37.032;2022-12-24T01:26:24;5.28;;;2.90;;
67514;SDS011;60646;55.802;37.032;2022-12-24T01:28:50;5.13;;;2.63;;
67514;SDS011;60646;55.802;37.032;2022-12-24T01:31:17;6.18;;;2.80;;
67514;SDS011;60646;55.802;37.032;2022-12-24T01:33:43;6.32;;;3.35;;
67514;SDS011;60646;55.802;37.032;2022-12-24T01:36:11;5.20;;;2.72;;
67514;SDS011;60646;55.802;37.032;2022-12-24T01:41:29;4.75;;;2.90;;
67514;SDS011;60646;55.802;37.032;2022-12-24T01:44:28;6.53;;;3.30;;
67514;SDS011;60646;55.802;37.032;2022-12-24T01:47:02;7.63;;;3.28;;
67514;SDS011;60646;55.802;37.032;2022-12-24T01:49:33;5.97;;;3.45;;
67514;SDS011;60646;55.802;37.032;2022-12-24T01:52:04;6.18;;;3.30;;
67514;SDS011;60646;55.802;37.032;2022-12-24T01:57:09;7.43;;;3.78;;
67514;SDS011;60646;55.802;37.032;2022-12-24T01:59:38;6.45;;;3.60;;
67514;SDS011;60646;55.802;37.032;2022-12-24T02:02:08;8.88;;;3.70;;
67514;SDS011;60646;55.802;37.032;2022-12-24T02:07:19;7.60;;;3.33;;
67514;SDS011;60646;55.802;37.032;2022-12-24T02:09:44;6.38;;;3.65;;
67514;SDS011;60646;55.802;37.032;2022-12-24T02:12:13;6.80;;;3.38;;
67514;SDS011;60646;55.802;37.032;2022-12-24T02:14:39;6.38;;;3.60;;
67514;SDS011;60646;55.802;37.032;2022-12-24T02:19:50;8.48;;;3.95;;
67514;SDS011;60646;55.802;37.032;2022-12-24T02:27:53;8.13;;;4.20;;
67514;SDS011;60646;55.802;37.032;2022-12-24T02:30:32;8.27;;;3.78;;
67514;SDS011;60646;55.802;37.032;2022-12-24T02:41:04;8.75;;;3.60;;
67514;SDS011;60646;55.802;37.032;2022-12-24T02:43:51;7.35;;;3.42;;
67514;SDS011;60646;55.802;37.032;2022-12-24T02:46:23;7.80;;;3.58;;
67514;SDS011;60646;55.802;37.032;2022-12-24T02:48:52;7.05;;;3.72;;
67514;SDS011;60646;55.802;37.032;2022-12-24T02:51:21;6.07;;;3.17;;
67514;SDS011;60646;55.802;37.032;2022-12-24T02:53:49;9.38;;;4.20;;
67514;SDS011;60646;55.802;37.032;2022-12-24T03:04:21;10.45;;;4.40;;
67514;SDS011;60646;55.802;37.032;2022-12-24T03:12:12;9.65;;;4.30;;
67514;SDS011;60646;55.802;37.032;2022-12-24T03:14:43;8.20;;;3.70;;
67514;SDS011;60646;55.802;37.032;2022-12-24T03:17:11;9.82;;;4.35;;
67514;SDS011;60646;55.802;37.032;2022-12-24T03:19:37;9.23;;;4.30;;
67514;SDS011;60646;55.802;37.032;2022-12-24T03:22:06;9.13;;;4.10;;
67514;SDS011;60646;55.802;37.032;2022-12-24T03:24:34;10.02;;;4.15;;
67514;SDS011;60646;55.802;37.032;2022-12-24T03:26:59;9.32;;;4.60;;
67514;SDS011;60646;55.802;37.032;2022-12-24T03:29:26;9.60;;;4.30;;
67514;SDS011;60646;55.802;37.032;2022-12-24T03:31:52;9.73;;;3.67;;
67514;SDS011;60646;55.802;37.032;2022-12-24T03:36:50;7.10;;;3.42;;
67514;SDS011;60646;55.802;37.032;2022-12-24T03:39:16;6.03;;;3.22;;
67514;SDS011;60646;55.802;37.032;2022-12-24T03:41:42;6.82;;;3.75;;
67514;SDS011;60646;55.802;37.032;2022-12-24T03:44:08;7.75;;;3.78;;
67514;SDS011;60646;55.802;37.032;2022-12-24T03:46:34;6.25;;;3.50;;
67514;SDS011;60646;55.802;37.032;2022-12-24T03:48:59;7.20;;;3.75;;
67514;SDS011;60646;55.802;37.032;2022-12-24T03:51:25;8.63;;;3.75;;
67514;SDS011;60646;55.802;37.032;2022-12-24T03:53:51;9.82;;;4.45;;
67514;SDS011;60646;55.802;37.032;2022-12-24T03:56:37;8.68;;;3.72;;
67514;SDS011;60646;55.802;37.032;2022-12-24T03:59:02;10.32;;;3.70;;
67514;SDS011;60646;55.802;37.032;2022-12-24T04:01:28;9.77;;;4.10;;
67514;SDS011;60646;55.802;37.032;2022-12-24T04:03:54;6.75;;;3.70;;
67514;SDS011;60646;55.802;37.032;2022-12-24T04:06:20;7.40;;;3.97;;
67514;SDS011;60646;55.802;37.032;2022-12-24T04:08:46;8.80;;;3.92;;
67514;SDS011;60646;55.802;37.032;2022-12-24T04:11:12;9.40;;;4.20;;
67514;SDS011;60646;55.802;37.032;2022-12-24T04:13:39;8.95;;;4.10;;
67514;SDS011;60646;55.802;37.032;2022-12-24T04:16:06;7.70;;;3.72;;
67514;SDS011;60646;55.802;37.032;2022-12-24T04:18:33;7.22;;;3.65;;
67514;SDS011;60646;55.802;37.032;2022-12-24T04:21:00;8.50;;;4.18;;
67514;SDS011;60646;55.802;37.032;2022-12-24T04:23:28;8.02;;;3.78;;
67514;SDS011;60646;55.802;37.032;2022-12-24T04:25:55;7.97;;;4.05;;
67514;SDS011;60646;55.802;37.032;2022-12-24T04:28:20;8.18;;;3.53;;
67514;SDS011;60646;55.802;37.032;2022-12-24T04:30:46;6.93;;;3.80;;
67514;SDS011;60646;55.802;37.032;2022-12-24T04:33:12;8.95;;;3.97;;
67514;SDS011;60646;55.802;37.032;2022-12-24T04:35:41;7.10;;;3.47;;
67514;SDS011;60646;55.802;37.032;2022-12-24T04:38:07;8.40;;;3.72;;
67514;SDS011;60646;55.802;37.032;2022-12-24T04:40:34;8.15;;;4.18;;
67514;SDS011;60646;55.802;37.032;2022-12-24T04:43:03;8.48;;;3.72;;
67514;SDS011;60646;55.802;37.032;2022-12-24T04:45:28;8.70;;;4.00;;
67514;SDS011;60646;55.802;37.032;2022-12-24T04:47:56;7.90;;;4.15;;
67514;SDS011;60646;55.802;37.032;2022-12-24T04:50:21;7.25;;;4.10;;
67514;SDS011;60646;55.802;37.032;2022-12-24T04:52:47;9.55;;;3.80;;
67514;SDS011;60646;55.802;37.032;2022-12-24T04:55:13;8.98;;;3.75;;
67514;SDS011;60646;55.802;37.032;2022-12-24T04:57:38;11.20;;;4.55;;
67514;SDS011;60646;55.802;37.032;2022-12-24T05:00:04;9.82;;;4.43;;
67514;SDS011;60646;55.802;37.032;2022-12-24T05:02:31;8.27;;;4.05;;
67514;SDS011;60646;55.802;37.032;2022-12-24T05:04:56;8.95;;;3.95;;
67514;SDS011;60646;55.802;37.032;2022-12-24T05:07:22;9.00;;;4.00;;
67514;SDS011;60646;55.802;37.032;2022-12-24T05:09:48;7.55;;;4.03;;
67514;SDS011;60646;55.802;37.032;2022-12-24T05:12:13;9.38;;;4.03;;
67514;SDS011;60646;55.802;37.032;2022-12-24T05:14:40;8.80;;;4.00;;
67514;SDS011;60646;55.802;37.032;2022-12-24T05:17:06;8.05;;;4.10;;
67514;SDS011;60646;55.802;37.032;2022-12-24T05:19:31;7.70;;;3.95;;
67514;SDS011;60646;55.802;37.032;2022-12-24T05:21:57;7.13;;;4.03;;
67514;SDS011;60646;55.802;37.032;2022-12-24T05:24:42;8.18;;;4.35;;
67514;SDS011;60646;55.802;37.032;2022-12-24T05:27:28;8.07;;;4.13;;
67514;SDS011;60646;55.802;37.032;2022-12-24T05:29:55;7.38;;;3.50;;
67514;SDS011;60646;55.802;37.032;2022-12-24T05:32:21;7.72;;;3.78;;
67514;SDS011;60646;55.802;37.032;2022-12-24T05:34:46;9.27;;;4.22;;
67514;SDS011;60646;55.802;37.032;2022-12-24T05:37:12;8.85;;;3.83;;
67514;SDS011;60646;55.802;37.032;2022-12-24T05:39:38;7.72;;;3.85;;
67514;SDS011;60646;55.802;37.032;2022-12-24T05:42:04;8.52;;;4.45;;
67514;SDS011;60646;55.802;37.032;2022-12-24T05:44:30;7.50;;;4.20;;
67514;SDS011;60646;55.802;37.032;2022-12-24T05:46:55;8.15;;;4.10;;
67514;SDS011;60646;55.802;37.032;2022-12-24T05:49:21;6.50;;;3.97;;
67514;SDS011;60646;55.802;37.032;2022-12-24T05:51:46;7.20;;;3.78;;
67514;SDS011;60646;55.802;37.032;2022-12-24T05:54:12;8.43;;;3.90;;
67514;SDS011;60646;55.802;37.032;2022-12-24T05:56:41;9.27;;;4.07;;
67514;SDS011;60646;55.802;37.032;2022-12-24T05:59:07;9.30;;;4.35;;
67514;SDS011;60646;55.802;37.032;2022-12-24T06:01:33;10.45;;;4.63;;
67514;SDS011;60646;55.802;37.032;2022-12-24T06:03:58;8.98;;;4.25;;
67514;SDS011;60646;55.802;37.032;2022-12-24T06:06:25;7.80;;;4.22;;
67514;SDS011;60646;55.802;37.032;2022-12-24T06:08:52;10.30;;;4.20;;
67514;SDS011;60646;55.802;37.032;2022-12-24T06:11:23;10.20;;;4.20;;
67514;SDS011;60646;55.802;37.032;2022-12-24T06:13:50;8.07;;;4.22;;
67514;SDS011;60646;55.802;37.032;2022-12-24T06:16:18;9.10;;;4.20;;
67514;SDS011;60646;55.802;37.032;2022-12-24T06:18:44;8.32;;;4.38;;
67514;SDS011;60646;55.802;37.032;2022-12-24T06:21:11;7.05;;;4.03;;
67514;SDS011;60646;55.802;37.032;2022-12-24T06:23:38;8.82;;;4.35;;
67514;SDS011;60646;55.802;37.032;2022-12-24T06:26:06;9.10;;;4.00;;
67514;SDS011;60646;55.802;37.032;2022-12-24T06:28:42;8.15;;;3.70;;
67514;SDS011;60646;55.802;37.032;2022-12-24T06:31:10;9.23;;;4.07;;
67514;SDS011;60646;55.802;37.032;2022-12-24T06:33:37;8.50;;;3.95;;
67514;SDS011;60646;55.802;37.032;2022-12-24T06:36:07;8.40;;;3.85;;
67514;SDS011;60646;55.802;37.032;2022-12-24T06:38:34;6.28;;;3.30;;
67514;SDS011;60646;55.802;37.032;2022-12-24T06:41:04;8.05;;;3.95;;
67514;SDS011;60646;55.802;37.032;2022-12-24T06:43:30;7.07;;;3.28;;
67514;SDS011;60646;55.802;37.032;2022-12-24T06:45:58;6.25;;;3.55;;
67514;SDS011;60646;55.802;37.032;2022-12-24T06:48:25;7.50;;;3.92;;
67514;SDS011;60646;55.802;37.032;2022-12-24T06:50:51;5.25;;;2.92;;
67514;SDS011;60646;55.802;37.032;2022-12-24T06:53:17;6.18;;;3.50;;
67514;SDS011;60646;55.802;37.032;2022-12-24T06:55:49;6.65;;;3.70;;
67514;SDS011;60646;55.802;37.032;2022-12-24T06:58:15;6.00;;;3.00;;
67514;SDS011;60646;55.802;37.032;2022-12-24T07:00:40;5.15;;;2.80;;
67514;SDS011;60646;55.802;37.032;2022-12-24T07:03:06;5.75;;;3.03;;
67514;SDS011;60646;55.802;37.032;2022-12-24T07:05:32;5.65;;;2.78;;
67514;SDS011;60646;55.802;37.032;2022-12-24T07:07:58;6.85;;;3.13;;
67514;SDS011;60646;55.802;37.032;2022-12-24T07:10:23;5.13;;;2.75;;
67514;SDS011;60646;55.802;37.032;2022-12-24T07:12:49;5.90;;;3.50;;
67514;SDS011;60646;55.802;37.032;2022-12-24T07:15:18;5.13;;;2.72;;
67514;SDS011;60646;55.802;37.032;2022-12-24T07:17:44;5.70;;;2.80;;
67514;SDS011;60646;55.802;37.032;2022-12-24T07:20:11;5.70;;;3.00;;
67514;SDS011;60646;55.802;37.032;2022-12-24T07:22:39;7.03;;;2.90;;
67514;SDS011;60646;55.802;37.032;2022-12-24T07:25:05;5.63;;;2.90;;
67514;SDS011;60646;55.802;37.032;2022-12-24T07:27:31;5.82;;;2.78;;
67514;SDS011;60646;55.802;37.032;2022-12-24T07:29:57;4.50;;;2.50;;
67514;SDS011;60646;55.802;37.032;2022-12-24T07:32:23;4.45;;;2.60;;
67514;SDS011;60646;55.802;37.032;2022-12-24T07:34:51;3.13;;;2.30;;
67514;SDS011;60646;55.802;37.032;2022-12-24T07:37:38;5.43;;;2.85;;
67514;SDS011;60646;55.802;37.032;2022-12-24T07:40:03;4.55;;;2.60;;
67514;SDS011;60646;55.802;37.032;2022-12-24T07:42:50;4.35;;;2.30;;
67514;SDS011;60646;55.802;37.032;2022-12-24T07:45:16;3.60;;;2.25;;
67514;SDS011;60646;55.802;37.032;2022-12-24T07:47:42;4.88;;;3.00;;
67514;SDS011;60646;55.802;37.032;2022-12-24T07:50:08;5.15;;;2.80;;
67514;SDS011;60646;55.802;37.032;2022-12-24T07:52:34;4.10;;;2.30;;
67514;SDS011;60646;55.802;37.032;2022-12-24T07:54:59;4.38;;;2.50;;
67514;SDS011;60646;55.802;37.032;2022-12-24T07:57:25;3.70;;;2.35;;
67514;SDS011;60646;55.802;37.032;2022-12-24T07:59:51;4.45;;;2.10;;
67514;SDS011;60646;55.802;37.032;2022-12-24T08:02:16;4.63;;;2.42;;
67514;SDS011;60646;55.802;37.032;2022-12-24T08:04:42;3.42;;;2.03;;
67514;SDS011;60646;55.802;37.032;2022-12-24T08:07:08;2.45;;;1.73;;
67514;SDS011;60646;55.802;37.032;2022-12-24T08:09:34;4.22;;;2.17;;
67514;SDS011;60646;55.802;37.032;2022-12-24T08:12:00;3.03;;;2.08;;
67514;SDS011;60646;55.802;37.032;2022-12-24T08:14:30;4.10;;;2.47;;
67514;SDS011;60646;55.802;37.032;2022-12-24T08:16:56;3.90;;;2.28;;
67514;SDS011;60646;55.802;37.032;2022-12-24T08:19:23;4.57;;;2.40;;
67514;SDS011;60646;55.802;37.032;2022-12-24T08:21:49;3.20;;;2.03;;
67514;SDS011;60646;55.802;37.032;2022-12-24T08:24:15;3.38;;;1.98;;
67514;SDS011;60646;55.802;37.032;2022-12-24T08:26:40;3.83;;;2.22;;
67514;SDS011;60646;55.802;37.032;2022-12-24T08:29:06;4.07;;;2.28;;
67514;SDS011;60646;55.802;37.032;2022-12-24T08:31:32;3.83;;;2.10;;
67514;SDS011;60646;55.802;37.032;2022-12-24T08:34:04;3.45;;;2.20;;
67514;SDS011;60646;55.802;37.032;2022-12-24T08:36:31;3.83;;;2.05;;
67514;SDS011;60646;55.802;37.032;2022-12-24T08:38:58;3.88;;;2.15;;
67514;SDS011;60646;55.802;37.032;2022-12-24T08:41:29;4.35;;;2.10;;
67514;SDS011;60646;55.802;37.032;2022-12-24T08:43:56;2.95;;;1.90;;
67514;SDS011;60646;55.802;37.032;2022-12-24T08:46:22;2.80;;;1.83;;
67514;SDS011;60646;55.802;37.032;2022-12-24T08:48:56;3.10;;;2.15;;
67514;SDS011;60646;55.802;37.032;2022-12-24T08:51:41;3.17;;;1.92;;
67514;SDS011;60646;55.802;37.032;2022-12-24T08:54:08;2.72;;;1.75;;
67514;SDS011;60646;55.802;37.032;2022-12-24T08:56:40;3.20;;;1.88;;
67514;SDS011;60646;55.802;37.032;2022-12-24T08:59:50;3.67;;;2.20;;
67514;SDS011;60646;55.802;37.032;2022-12-24T09:02:23;2.53;;;1.90;;
67514;SDS011;60646;55.802;37.032;2022-12-24T09:07:40;3.22;;;1.88;;
67514;SDS011;60646;55.802;37.032;2022-12-24T09:10:07;3.17;;;1.88;;
67514;SDS011;60646;55.802;37.032;2022-12-24T09:12:33;3.03;;;2.08;;
67514;SDS011;60646;55.802;37.032;2022-12-24T09:14:59;3.58;;;1.80;;
67514;SDS011;60646;55.802;37.032;2022-12-24T09:17:25;2.50;;;2.15;;
67514;SDS011;60646;55.802;37.032;2022-12-24T09:19:52;3.47;;;2.00;;
67514;SDS011;60646;55.802;37.032;2022-12-24T09:22:18;3.30;;;2.22;;
67514;SDS011;60646;55.802;37.032;2022-12-24T09:24:44;2.90;;;1.88;;
67514;SDS011;60646;55.802;37.032;2022-12-24T09:27:13;3.13;;;2.05;;
67514;SDS011;60646;55.802;37.032;2022-12-24T09:29:40;2.42;;;1.88;;
67514;SDS011;60646;55.802;37.032;2022-12-24T09:36:00;2.72;;;1.73;;
67514;SDS011;60646;55.802;37.032;2022-12-24T09:38:27;2.70;;;1.90;;
67514;SDS011;60646;55.802;37.032;2022-12-24T09:40:53;2.80;;;1.80;;
67514;SDS011;60646;55.802;37.032;2022-12-24T09:43:21;2.95;;;1.70;;
67514;SDS011;60646;55.802;37.032;2022-12-24T09:48:33;3.40;;;2.08;;
67514;SDS011;60646;55.802;37.032;2022-12-24T09:51:08;5.63;;;2.65;;
67514;SDS011;60646;55.802;37.032;2022-12-24T09:53:58;3.15;;;2.10;;
67514;SDS011;60646;55.802;37.032;2022-12-24T09:59:24;3.33;;;1.90;;
67514;SDS011;60646;55.802;37.032;2022-12-24T10:01:56;6.00;;;2.78;;
67514;SDS011;60646;55.802;37.032;2022-12-24T10:04:23;3.92;;;2.30;;
67514;SDS011;60646;55.802;37.032;2022-12-24T10:12:44;4.43;;;2.50;;
67514;SDS011;60646;55.802;37.032;2022-12-24T10:25:35;3.20;;;1.55;;
67514;SDS011;60646;55.802;37.032;2022-12-24T10:28:18;2.30;;;1.33;;
67514;SDS011;60646;55.802;37.032;2022-12-24T10:30:48;1.75;;;1.23;;
67514;SDS011;60646;55.802;37.032;2022-12-24T10:33:23;1.63;;;1.25;;
67514;SDS011;60646;55.802;37.032;2022-12-24T10:38:43;1.58;;;1.00;;
67514;SDS011;60646;55.802;37.032;2022-12-24T10:41:09;1.90;;;1.20;;
67514;SDS011;60646;55.802;37.032;2022-12-24T10:43:37;1.42;;;1.05;;
67514;SDS011;60646;55.802;37.032;2022-12-24T10:46:05;1.70;;;1.00;;
67514;SDS011;60646;55.802;37.032;2022-12-24T10:48:41;2.17;;;1.30;;
67514;SDS011;60646;55.802;37.032;2022-12-24T10:53:55;1.20;;;1.02;;
67514;SDS011;60646;55.802;37.032;2022-12-24T10:56:45;2.65;;;1.30;;
67514;SDS011;60646;55.802;37.032;2022-12-24T11:04:51;1.48;;;1.20;;
67514;SDS011;60646;55.802;37.032;2022-12-24T11:07:18;2.30;;;1.23;;
67514;SDS011;60646;55.802;37.032;2022-12-24T11:10:03;1.90;;;1.27;;
67514;SDS011;60646;55.802;37.032;2022-12-24T11:12:34;2.40;;;1.30;;
67514;SDS011;60646;55.802;37.032;2022-12-24T11:15:18;2.10;;;1.35;;
67514;SDS011;60646;55.802;37.032;2022-12-24T11:17:54;2.15;;;1.30;;
67514;SDS011;60646;55.802;37.032;2022-12-24T11:20:25;1.65;;;1.20;;
67514;SDS011;60646;55.802;37.032;2022-12-24T11:22:52;2.42;;;1.48;;
67514;SDS011;60646;55.802;37.032;2022-12-24T11:25:20;3.35;;;1.50;;
67514;SDS011;60646;55.802;37.032;2022-12-24T11:27:49;2.47;;;1.30;;
67514;SDS011;60646;55.802;37.032;2022-12-24T11:35:17;1.83;;;1.38;;
67514;SDS011;60646;55.802;37.032;2022-12-24T11:38:09;2.30;;;1.35;;
67514;SDS011;60646;55.802;37.032;2022-12-24T11:40:40;1.65;;;1.15;;
67514;SDS011;60646;55.802;37.032;2022-12-24T11:43:18;2.17;;;1.60;;
67514;SDS011;60646;55.802;37.032;2022-12-24T11:45:50;2.03;;;1.40;;
67514;SDS011;60646;55.802;37.032;2022-12-24T11:51:03;2.00;;;1.05;;
67514;SDS011;60646;55.802;37.032;2022-12-24T11:55:59;2.13;;;1.30;;
67514;SDS011;60646;55.802;37.032;2022-12-24T12:03:52;2.38;;;1.25;;
67514;SDS011;60646;55.802;37.032;2022-12-24T12:15:46;2.63;;;1.35;;
67514;SDS011;60646;55.802;37.032;2022-12-24T12:18:20;2.90;;;1.40;;
67514;SDS011;60646;55.802;37.032;2022-12-24T12:21:02;3.03;;;1.45;;
67514;SDS011;60646;55.802;37.032;2022-12-24T12:23:38;1.52;;;1.20;;
67514;SDS011;60646;55.802;37.032;2022-12-24T12:26:17;2.08;;;1.40;;
67514;SDS011;60646;55.802;37.032;2022-12-24T12:33:58;2.38;;;1.35;;
67514;SDS011;60646;55.802;37.032;2022-12-24T12:36:30;1.70;;;1.40;;
67514;SDS011;60646;55.802;37.032;2022-12-24T12:39:00;2.30;;;1.50;;
67514;SDS011;60646;55.802;37.032;2022-12-24T12:49:12;4.68;;;2.38;;
67514;SDS011;60646;55.802;37.032;2022-12-24T12:54:29;6.03;;;2.50;;
67514;SDS011;60646;55.802;37.032;2022-12-24T12:57:01;5.40;;;2.85;;
67514;SDS011;60646;55.802;37.032;2022-12-24T12:59:43;2.95;;;1.80;;
67514;SDS011;60646;55.802;37.032;2022-12-24T13:12:35;2.15;;;1.42;;
67514;SDS011;60646;55.802;37.032;2022-12-24T13:20:50;2.20;;;1.35;;
67514;SDS011;60646;55.802;37.032;2022-12-24T13:23:18;1.92;;;1.52;;
67514;SDS011;60646;55.802;37.032;2022-12-24T13:25:48;7.18;;;4.80;;
67514;SDS011;60646;55.802;37.032;2022-12-24T13:30:41;3.03;;;1.70;;
67514;SDS011;60646;55.802;37.032;2022-12-24T13:33:08;2.85;;;1.77;;
67514;SDS011;60646;55.802;37.032;2022-12-24T13:35:37;3.13;;;2.83;;
67514;SDS011;60646;55.802;37.032;2022-12-24T13:43:19;3.67;;;2.08;;
67514;SDS011;60646;55.802;37.032;2022-12-24T13:45:46;7.63;;;3.05;;
67514;SDS011;60646;55.802;37.032;2022-12-24T13:48:29;6.70;;;2.50;;
67514;SDS011;60646;55.802;37.032;2022-12-24T13:50:58;6.33;;;1.90;;
67514;SDS011;60646;55.802;37.032;2022-12-24T13:55:59;3.58;;;1.90;;
67514;SDS011;60646;55.802;37.032;2022-12-24T13:58:32;4.43;;;2.47;;
67514;SDS011;60646;55.802;37.032;2022-12-24T14:01:10;5.20;;;2.30;;
67514;SDS011;60646;55.802;37.032;2022-12-24T14:03:46;6.22;;;2.65;;
67514;SDS011;60646;55.802;37.032;2022-12-24T14:08:44;3.30;;;2.28;;
67514;SDS011;60646;55.802;37.032;2022-12-24T14:11:14;4.75;;;1.92;;
67514;SDS011;60646;55.802;37.032;2022-12-24T14:16:14;4.72;;;2.58;;
67514;SDS011;60646;55.802;37.032;2022-12-24T14:18:42;3.47;;;2.10;;
67514;SDS011;60646;55.802;37.032;2022-12-24T14:21:19;2.63;;;1.70;;
67514;SDS011;60646;55.802;37.032;2022-12-24T14:23:56;3.65;;;1.90;;
67514;SDS011;60646;55.802;37.032;2022-12-24T14:32:35;4.15;;;1.80;;
67514;SDS011;60646;55.802;37.032;2022-12-24T14:37:39;3.47;;;1.70;;
67514;SDS011;60646;55.802;37.032;2022-12-24T14:40:06;2.17;;;1.42;;
67514;SDS011;60646;55.802;37.032;2022-12-24T15:20:12;2.85;;;1.90;;
67514;SDS011;60646;55.802;37.032;2022-12-24T15:22:40;5.25;;;1.88;;
67514;SDS011;60646;55.802;37.032;2022-12-24T15:31:03;6.07;;;1.90;;
67514;SDS011;60646;55.802;37.032;2022-12-24T15:33:43;3.35;;;1.85;;
67514;SDS011;60646;55.802;37.032;2022-12-24T15:36:10;4.95;;;2.53;;
67514;SDS011;60646;55.802;37.032;2022-12-24T15:38:41;3.65;;;2.00;;
67514;SDS011;60646;55.802;37.032;2022-12-24T15:41:19;4.25;;;2.03;;
67514;SDS011;60646;55.802;37.032;2022-12-24T15:43:48;2.83;;;1.70;;
67514;SDS011;60646;55.802;37.032;2022-12-24T15:46:16;3.47;;;2.30;;
67514;SDS011;60646;55.802;37.032;2022-12-24T15:48:44;3.70;;;2.38;;
67514;SDS011;60646;55.802;37.032;2022-12-24T15:53:58;4.03;;;2.75;;
67514;SDS011;60646;55.802;37.032;2022-12-24T15:56:44;5.03;;;2.13;;
67514;SDS011;60646;55.802;37.032;2022-12-24T16:01:43;16.70;;;6.82;;
67514;SDS011;60646;55.802;37.032;2022-12-24T16:04:15;7.40;;;3.10;;
67514;SDS011;60646;55.802;37.032;2022-12-24T16:07:01;3.20;;;2.10;;
67514;SDS011;60646;55.802;37.032;2022-12-24T16:09:29;3.63;;;2.08;;
67514;SDS011;60646;55.802;37.032;2022-12-24T16:12:17;5.72;;;3.40;;
67514;SDS011;60646;55.802;37.032;2022-12-24T16:14:51;4.15;;;2.15;;
67514;SDS011;60646;55.802;37.032;2022-12-24T16:17:24;3.00;;;2.10;;
67514;SDS011;60646;55.802;37.032;2022-12-24T16:19:53;11.00;;;4.40;;
67514;SDS011;60646;55.802;37.032;2022-12-24T16:22:21;8.73;;;3.33;;
67514;SDS011;60646;55.802;37.032;2022-12-24T16:25:00;4.25;;;2.40;;
67514;SDS011;60646;55.802;37.032;2022-12-24T16:27:40;5.75;;;2.97;;
67514;SDS011;60646;55.802;37.032;2022-12-24T16:30:06;5.93;;;2.60;;
67514;SDS011;60646;55.802;37.032;2022-12-24T16:32:34;4.05;;;2.45;;
67514;SDS011;60646;55.802;37.032;2022-12-24T16:35:09;2.83;;;1.70;;
67514;SDS011;60646;55.802;37.032;2022-12-24T16:38:02;2.35;;;1.40;;
67514;SDS011;60646;55.802;37.032;2022-12-24T16:40:28;4.47;;;1.77;;
67514;SDS011;60646;55.802;37.032;2022-12-24T16:42:55;3.22;;;1.73;;
67514;SDS011;60646;55.802;37.032;2022-12-24T16:45:40;2.05;;;1.42;;
67514;SDS011;60646;55.802;37.032;2022-12-24T16:48:06;3.08;;;1.83;;
67514;SDS011;60646;55.802;37.032;2022-12-24T16:50:33;2.40;;;1.50;;
67514;SDS011;60646;55.802;37.032;2022-12-24T16:53:00;2.20;;;1.30;;
67514;SDS011;60646;55.802;37.032;2022-12-24T16:55:25;2.92;;;1.50;;
67514;SDS011;60646;55.802;37.032;2022-12-24T16:58:10;2.78;;;1.67;;
67514;SDS011;60646;55.802;37.032;2022-12-24T17:00:37;2.85;;;1.70;;
67514;SDS011;60646;55.802;37.032;2022-12-24T17:03:03;1.95;;;1.40;;
67514;SDS011;60646;55.802;37.032;2022-12-24T17:05:29;2.28;;;1.65;;
67514;SDS011;60646;55.802;37.032;2022-12-24T17:07:58;2.10;;;1.30;;
67514;SDS011;60646;55.802;37.032;2022-12-24T17:10:25;2.05;;;1.40;;
67514;SDS011;60646;55.802;37.032;2022-12-24T17:12:51;2.33;;;1.50;;
67514;SDS011;60646;55.802;37.032;2022-12-24T17:15:16;2.15;;;1.45;;
67514;SDS011;60646;55.802;37.032;2022-12-24T17:17:42;3.47;;;2.05;;
67514;SDS011;60646;55.802;37.032;2022-12-24T17:20:08;2.30;;;1.60;;
67514;SDS011;60646;55.802;37.032;2022-12-24T17:22:34;2.25;;;1.27;;
67514;SDS011;60646;55.802;37.032;2022-12-24T17:25:00;2.05;;;1.52;;
67514;SDS011;60646;55.802;37.032;2022-12-24T17:27:26;2.15;;;1.20;;
67514;SDS011;60646;55.802;37.032;2022-12-24T17:29:52;3.20;;;1.67;;
67514;SDS011;60646;55.802;37.032;2022-12-24T17:32:18;2.85;;;1.58;;
67514;SDS011;60646;55.802;37.032;2022-12-24T17:34:44;6.25;;;3.50;;
67514;SDS011;60646;55.802;37.032;2022-12-24T17:37:13;4.57;;;2.10;;
67514;SDS011;60646;55.802;37.032;2022-12-24T17:39:39;5.00;;;2.55;;
67514;SDS011;60646;55.802;37.032;2022-12-24T17:42:13;4.85;;;2.38;;
67514;SDS011;60646;55.802;37.032;2022-12-24T17:44:39;3.40;;;2.00;;
67514;SDS011;60646;55.802;37.032;2022-12-24T17:47:05;2.00;;;1.30;;
67514;SDS011;60646;55.802;37.032;2022-12-24T17:49:31;1.98;;;1.45;;
67514;SDS011;60646;55.802;37.032;2022-12-24T17:52:09;1.88;;;1.20;;
67514;SDS011;60646;55.802;37.032;2022-12-24T17:57:42;1.55;;;1.08;;
67514;SDS011;60646;55.802;37.032;2022-12-24T18:00:12;2.10;;;1.30;;
67514;SDS011;60646;55.802;37.032;2022-12-24T18:02:39;1.42;;;1.00;;
67514;SDS011;60646;55.802;37.032;2022-12-24T18:05:05;1.20;;;1.00;;
67514;SDS011;60646;55.802;37.032;2022-12-24T18:07:31;1.80;;;1.02;;
67514;SDS011;60646;55.802;37.032;2022-12-24T18:09:57;2.15;;;1.30;;
67514;SDS011;60646;55.802;37.032;2022-12-24T18:12:23;2.85;;;1.33;;
67514;SDS011;60646;55.802;37.032;2022-12-24T18:14:49;1.55;;;1.10;;
67514;SDS011;60646;55.802;37.032;2022-12-24T18:17:14;1.95;;;1.20;;
67514;SDS011;60646;55.802;37.032;2022-12-24T18:19:40;1.33;;;0.90;;
67514;SDS011;60646;55.802;37.032;2022-12-24T18:22:06;1.20;;;1.10;;
67514;SDS011;60646;55.802;37.032;2022-12-24T18:24:50;2.33;;;1.20;;